sensor_id;sensor_type;location;lat;lon;timestamp;P1;durP1;ratioP1;P2;durP2;ratioP2
41663;SDS011;27353;50.906;7.248;2024-03-02T00:01:07;4.95;;;4.55;;
41663;SDS011;27353;50.906;7.248;2024-03-02T00:03:36;5.20;;;4.70;;
41663;SDS011;27353;50.906;7.248;2024-03-02T00:06:03;4.80;;;4.45;;
41663;SDS011;27353;50.906;7.248;2024-03-02T00:08:29;4.60;;;4.30;;
41663;SDS011;27353;50.906;7.248;2024-03-02T00:10:58;5.30;;;4.90;;
41663;SDS011;27353;50.906;7.248;2024-03-02T00:13:24;4.57;;;4.28;;
41663;SDS011;27353;50.906;7.248;2024-03-02T00:15:51;4.90;;;4.60;;
41663;SDS011;27353;50.906;7.248;2024-03-02T00:18:19;4.45;;;4.15;;
41663;SDS011;27353;50.906;7.248;2024-03-02T00:21:05;5.28;;;4.88;;
41663;SDS011;27353;50.906;7.248;2024-03-02T00:23:34;5.30;;;4.88;;
41663;SDS011;27353;50.906;7.248;2024-03-02T00:26:00;4.68;;;4.38;;
41663;SDS011;27353;50.906;7.248;2024-03-02T00:30:57;5.07;;;4.78;;
41663;SDS011;27353;50.906;7.248;2024-03-02T00:33:23;6.38;;;4.88;;
41663;SDS011;27353;50.906;7.248;2024-03-02T00:35:51;5.07;;;4.78;;
41663;SDS011;27353;50.906;7.248;2024-03-02T00:38:18;4.65;;;4.35;;
41663;SDS011;27353;50.906;7.248;2024-03-02T00:40:44;5.07;;;4.78;;
41663;SDS011;27353;50.906;7.248;2024-03-02T00:43:32;3.97;;;3.72;;
41663;SDS011;27353;50.906;7.248;2024-03-02T00:46:03;4.63;;;4.22;;
41663;SDS011;27353;50.906;7.248;2024-03-02T00:48:29;5.22;;;4.85;;
41663;SDS011;27353;50.906;7.248;2024-03-02T00:50:56;5.22;;;4.80;;
41663;SDS011;27353;50.906;7.248;2024-03-02T00:53:23;6.03;;;5.40;;
41663;SDS011;27353;50.906;7.248;2024-03-02T00:55:50;5.57;;;5.15;;
41663;SDS011;27353;50.906;7.248;2024-03-02T00:58:16;5.13;;;4.72;;
41663;SDS011;27353;50.906;7.248;2024-03-02T01:00:42;5.13;;;4.82;;
41663;SDS011;27353;50.906;7.248;2024-03-02T01:03:08;4.32;;;3.92;;
41663;SDS011;27353;50.906;7.248;2024-03-02T01:05:35;4.47;;;4.18;;
41663;SDS011;27353;50.906;7.248;2024-03-02T01:08:01;5.35;;;5.03;;
41663;SDS011;27353;50.906;7.248;2024-03-02T01:10:27;4.97;;;4.57;;
41663;SDS011;27353;50.906;7.248;2024-03-02T01:12:52;7.45;;;5.50;;
41663;SDS011;27353;50.906;7.248;2024-03-02T01:15:18;6.20;;;5.60;;
41663;SDS011;27353;50.906;7.248;2024-03-02T01:17:44;5.10;;;4.70;;
41663;SDS011;27353;50.906;7.248;2024-03-02T01:20:10;5.22;;;4.82;;
41663;SDS011;27353;50.906;7.248;2024-03-02T01:22:36;5.18;;;4.78;;
41663;SDS011;27353;50.906;7.248;2024-03-02T01:25:02;5.50;;;5.10;;
41663;SDS011;27353;50.906;7.248;2024-03-02T01:27:28;5.72;;;5.22;;
41663;SDS011;27353;50.906;7.248;2024-03-02T01:29:53;8.52;;;5.28;;
41663;SDS011;27353;50.906;7.248;2024-03-02T01:32:19;5.53;;;5.22;;
41663;SDS011;27353;50.906;7.248;2024-03-02T01:34:45;4.80;;;4.50;;
41663;SDS011;27353;50.906;7.248;2024-03-02T01:37:11;5.07;;;4.78;;
41663;SDS011;27353;50.906;7.248;2024-03-02T01:39:36;5.63;;;5.03;;
41663;SDS011;27353;50.906;7.248;2024-03-02T01:42:02;5.10;;;4.80;;
41663;SDS011;27353;50.906;7.248;2024-03-02T01:44:27;5.45;;;4.95;;
41663;SDS011;27353;50.906;7.248;2024-03-02T01:46:53;4.95;;;4.72;;
41663;SDS011;27353;50.906;7.248;2024-03-02T01:49:19;5.28;;;4.78;;
41663;SDS011;27353;50.906;7.248;2024-03-02T01:51:44;5.82;;;5.30;;
41663;SDS011;27353;50.906;7.248;2024-03-02T01:54:10;4.90;;;4.53;;
41663;SDS011;27353;50.906;7.248;2024-03-02T01:56:35;4.90;;;4.60;;
41663;SDS011;27353;50.906;7.248;2024-03-02T01:59:01;5.07;;;4.70;;
41663;SDS011;27353;50.906;7.248;2024-03-02T02:01:27;6.10;;;5.18;;
41663;SDS011;27353;50.906;7.248;2024-03-02T02:03:52;5.35;;;5.05;;
41663;SDS011;27353;50.906;7.248;2024-03-02T02:06:18;4.93;;;4.53;;
41663;SDS011;27353;50.906;7.248;2024-03-02T02:08:44;5.18;;;4.78;;
41663;SDS011;27353;50.906;7.248;2024-03-02T02:11:10;5.55;;;5.15;;
41663;SDS011;27353;50.906;7.248;2024-03-02T02:13:36;5.18;;;4.78;;
41663;SDS011;27353;50.906;7.248;2024-03-02T02:16:05;6.20;;;5.70;;
41663;SDS011;27353;50.906;7.248;2024-03-02T02:18:32;5.40;;;5.00;;
41663;SDS011;27353;50.906;7.248;2024-03-02T02:20:57;4.85;;;4.63;;
41663;SDS011;27353;50.906;7.248;2024-03-02T02:23:23;5.22;;;4.63;;
41663;SDS011;27353;50.906;7.248;2024-03-02T02:25:48;5.05;;;4.80;;
41663;SDS011;27353;50.906;7.248;2024-03-02T02:28:14;4.97;;;4.68;;
41663;SDS011;27353;50.906;7.248;2024-03-02T02:30:39;6.70;;;6.20;;
41663;SDS011;27353;50.906;7.248;2024-03-02T02:33:05;5.18;;;4.97;;
41663;SDS011;27353;50.906;7.248;2024-03-02T02:35:30;5.25;;;4.95;;
41663;SDS011;27353;50.906;7.248;2024-03-02T02:37:56;5.63;;;5.20;;
41663;SDS011;27353;50.906;7.248;2024-03-02T02:40:23;6.20;;;5.70;;
41663;SDS011;27353;50.906;7.248;2024-03-02T02:42:49;5.20;;;4.55;;
41663;SDS011;27353;50.906;7.248;2024-03-02T02:45:16;5.88;;;5.40;;
41663;SDS011;27353;50.906;7.248;2024-03-02T02:47:42;5.10;;;4.70;;
41663;SDS011;27353;50.906;7.248;2024-03-02T02:50:09;4.75;;;4.55;;
41663;SDS011;27353;50.906;7.248;2024-03-02T02:52:37;6.90;;;6.28;;
41663;SDS011;27353;50.906;7.248;2024-03-02T02:55:05;5.30;;;4.90;;
41663;SDS011;27353;50.906;7.248;2024-03-02T02:57:32;4.82;;;4.30;;
41663;SDS011;27353;50.906;7.248;2024-03-02T03:00:06;5.00;;;4.60;;
41663;SDS011;27353;50.906;7.248;2024-03-02T03:02:44;5.00;;;4.60;;
41663;SDS011;27353;50.906;7.248;2024-03-02T03:05:12;5.95;;;5.47;;
41663;SDS011;27353;50.906;7.248;2024-03-02T03:07:39;5.60;;;5.30;;
41663;SDS011;27353;50.906;7.248;2024-03-02T03:10:05;6.00;;;5.63;;
41663;SDS011;27353;50.906;7.248;2024-03-02T03:12:32;5.53;;;5.20;;
41663;SDS011;27353;50.906;7.248;2024-03-02T03:14:58;5.75;;;5.45;;
41663;SDS011;27353;50.906;7.248;2024-03-02T03:17:25;5.72;;;5.43;;
41663;SDS011;27353;50.906;7.248;2024-03-02T03:19:50;5.95;;;5.45;;
41663;SDS011;27353;50.906;7.248;2024-03-02T03:22:16;5.47;;;5.07;;
41663;SDS011;27353;50.906;7.248;2024-03-02T03:24:42;7.72;;;5.50;;
41663;SDS011;27353;50.906;7.248;2024-03-02T03:27:07;6.00;;;5.60;;
41663;SDS011;27353;50.906;7.248;2024-03-02T03:29:34;5.60;;;5.20;;
41663;SDS011;27353;50.906;7.248;2024-03-02T03:32:01;5.15;;;4.75;;
41663;SDS011;27353;50.906;7.248;2024-03-02T03:34:27;5.95;;;5.38;;
41663;SDS011;27353;50.906;7.248;2024-03-02T03:36:54;5.68;;;5.25;;
41663;SDS011;27353;50.906;7.248;2024-03-02T03:39:19;6.20;;;5.60;;
41663;SDS011;27353;50.906;7.248;2024-03-02T03:41:45;6.20;;;5.70;;
41663;SDS011;27353;50.906;7.248;2024-03-02T03:44:11;6.75;;;6.25;;
41663;SDS011;27353;50.906;7.248;2024-03-02T03:46:36;6.95;;;6.45;;
41663;SDS011;27353;50.906;7.248;2024-03-02T03:49:02;6.70;;;5.80;;
41663;SDS011;27353;50.906;7.248;2024-03-02T03:51:28;7.35;;;6.13;;
41663;SDS011;27353;50.906;7.248;2024-03-02T03:53:55;5.72;;;5.28;;
41663;SDS011;27353;50.906;7.248;2024-03-02T03:56:21;7.13;;;6.47;;
41663;SDS011;27353;50.906;7.248;2024-03-02T03:58:46;6.93;;;6.32;;
41663;SDS011;27353;50.906;7.248;2024-03-02T04:01:12;7.20;;;6.70;;
41663;SDS011;27353;50.906;7.248;2024-03-02T04:03:38;7.65;;;6.93;;
41663;SDS011;27353;50.906;7.248;2024-03-02T04:06:03;6.35;;;5.90;;
41663;SDS011;27353;50.906;7.248;2024-03-02T04:08:29;7.28;;;6.63;;
41663;SDS011;27353;50.906;7.248;2024-03-02T04:10:55;7.35;;;6.85;;
41663;SDS011;27353;50.906;7.248;2024-03-02T04:13:20;6.72;;;6.22;;
41663;SDS011;27353;50.906;7.248;2024-03-02T04:15:46;6.60;;;6.20;;
41663;SDS011;27353;50.906;7.248;2024-03-02T04:18:11;5.95;;;5.45;;
41663;SDS011;27353;50.906;7.248;2024-03-02T04:20:37;7.35;;;6.68;;
41663;SDS011;27353;50.906;7.248;2024-03-02T04:23:03;6.20;;;5.70;;
41663;SDS011;27353;50.906;7.248;2024-03-02T04:25:28;7.15;;;6.45;;
41663;SDS011;27353;50.906;7.248;2024-03-02T04:27:54;6.97;;;6.35;;
41663;SDS011;27353;50.906;7.248;2024-03-02T04:30:19;7.38;;;6.80;;
41663;SDS011;27353;50.906;7.248;2024-03-02T04:32:45;6.63;;;6.13;;
41663;SDS011;27353;50.906;7.248;2024-03-02T04:35:11;6.72;;;6.30;;
41663;SDS011;27353;50.906;7.248;2024-03-02T04:37:40;6.60;;;6.13;;
41663;SDS011;27353;50.906;7.248;2024-03-02T04:40:06;7.55;;;7.05;;
41663;SDS011;27353;50.906;7.248;2024-03-02T04:42:33;7.65;;;7.13;;
41663;SDS011;27353;50.906;7.248;2024-03-02T04:44:59;6.70;;;6.22;;
41663;SDS011;27353;50.906;7.248;2024-03-02T04:47:24;7.80;;;6.30;;
41663;SDS011;27353;50.906;7.248;2024-03-02T04:49:50;6.72;;;6.22;;
41663;SDS011;27353;50.906;7.248;2024-03-02T04:52:15;7.93;;;7.13;;
41663;SDS011;27353;50.906;7.248;2024-03-02T04:54:41;7.53;;;6.82;;
41663;SDS011;27353;50.906;7.248;2024-03-02T04:57:25;7.55;;;6.85;;
41663;SDS011;27353;50.906;7.248;2024-03-02T04:59:51;7.35;;;6.65;;
41663;SDS011;27353;50.906;7.248;2024-03-02T05:02:16;8.85;;;7.93;;
41663;SDS011;27353;50.906;7.248;2024-03-02T05:04:42;9.90;;;8.18;;
41663;SDS011;27353;50.906;7.248;2024-03-02T05:07:07;7.82;;;7.07;;
41663;SDS011;27353;50.906;7.248;2024-03-02T05:09:33;7.97;;;7.38;;
41663;SDS011;27353;50.906;7.248;2024-03-02T05:11:58;8.27;;;6.57;;
41663;SDS011;27353;50.906;7.248;2024-03-02T05:14:42;8.13;;;7.20;;
41663;SDS011;27353;50.906;7.248;2024-03-02T05:17:08;7.93;;;7.43;;
41663;SDS011;27353;50.906;7.248;2024-03-02T05:19:33;7.57;;;6.90;;
41663;SDS011;27353;50.906;7.248;2024-03-02T05:21:59;8.50;;;7.90;;
41663;SDS011;27353;50.906;7.248;2024-03-02T05:24:24;8.20;;;7.45;;
41663;SDS011;27353;50.906;7.248;2024-03-02T05:26:52;7.30;;;6.80;;
41663;SDS011;27353;50.906;7.248;2024-03-02T05:29:18;7.90;;;7.15;;
41663;SDS011;27353;50.906;7.248;2024-03-02T05:31:43;6.57;;;6.05;;
41663;SDS011;27353;50.906;7.248;2024-03-02T05:34:09;9.00;;;8.13;;
41663;SDS011;27353;50.906;7.248;2024-03-02T05:36:35;7.68;;;7.18;;
41663;SDS011;27353;50.906;7.248;2024-03-02T05:39:00;9.35;;;7.55;;
41663;SDS011;27353;50.906;7.248;2024-03-02T05:41:27;8.02;;;7.43;;
41663;SDS011;27353;50.906;7.248;2024-03-02T05:43:52;8.73;;;7.88;;
41663;SDS011;27353;50.906;7.248;2024-03-02T05:46:18;7.20;;;6.50;;
41663;SDS011;27353;50.906;7.248;2024-03-02T05:48:44;7.63;;;6.88;;
41663;SDS011;27353;50.906;7.248;2024-03-02T05:51:09;7.85;;;7.05;;
41663;SDS011;27353;50.906;7.248;2024-03-02T05:53:35;8.20;;;7.13;;
41663;SDS011;27353;50.906;7.248;2024-03-02T05:56:03;8.52;;;7.57;;
41663;SDS011;27353;50.906;7.248;2024-03-02T05:58:29;9.48;;;8.10;;
41663;SDS011;27353;50.906;7.248;2024-03-02T06:01:13;9.95;;;9.02;;
41663;SDS011;27353;50.906;7.248;2024-03-02T06:03:39;9.07;;;8.25;;
41663;SDS011;27353;50.906;7.248;2024-03-02T06:06:04;9.57;;;8.60;;
41663;SDS011;27353;50.906;7.248;2024-03-02T06:08:30;9.55;;;8.35;;
41663;SDS011;27353;50.906;7.248;2024-03-02T06:10:56;9.05;;;8.32;;
41663;SDS011;27353;50.906;7.248;2024-03-02T06:13:22;9.50;;;8.68;;
41663;SDS011;27353;50.906;7.248;2024-03-02T06:15:48;9.38;;;8.52;;
41663;SDS011;27353;50.906;7.248;2024-03-02T06:18:13;11.38;;;7.68;;
41663;SDS011;27353;50.906;7.248;2024-03-02T06:20:39;9.13;;;8.30;;
41663;SDS011;27353;50.906;7.248;2024-03-02T06:23:04;9.70;;;8.15;;
41663;SDS011;27353;50.906;7.248;2024-03-02T06:25:30;10.25;;;9.20;;
41663;SDS011;27353;50.906;7.248;2024-03-02T06:27:56;10.75;;;9.75;;
41663;SDS011;27353;50.906;7.248;2024-03-02T06:30:21;8.10;;;7.38;;
41663;SDS011;27353;50.906;7.248;2024-03-02T06:32:47;10.05;;;9.05;;
41663;SDS011;27353;50.906;7.248;2024-03-02T06:35:12;7.53;;;6.93;;
41663;SDS011;27353;50.906;7.248;2024-03-02T06:37:38;8.07;;;7.28;;
41663;SDS011;27353;50.906;7.248;2024-03-02T06:40:07;7.63;;;7.03;;
41663;SDS011;27353;50.906;7.248;2024-03-02T06:42:33;7.63;;;6.72;;
41663;SDS011;27353;50.906;7.248;2024-03-02T06:44:59;10.90;;;8.27;;
41663;SDS011;27353;50.906;7.248;2024-03-02T06:47:25;8.93;;;8.15;;
41663;SDS011;27353;50.906;7.248;2024-03-02T06:49:51;9.45;;;8.65;;
41663;SDS011;27353;50.906;7.248;2024-03-02T06:52:16;8.82;;;8.13;;
41663;SDS011;27353;50.906;7.248;2024-03-02T06:54:42;9.15;;;8.38;;
41663;SDS011;27353;50.906;7.248;2024-03-02T06:57:07;9.35;;;8.50;;
41663;SDS011;27353;50.906;7.248;2024-03-02T06:59:33;9.90;;;8.95;;
41663;SDS011;27353;50.906;7.248;2024-03-02T07:01:59;7.88;;;7.28;;
41663;SDS011;27353;50.906;7.248;2024-03-02T07:04:24;9.15;;;7.90;;
41663;SDS011;27353;50.906;7.248;2024-03-02T07:06:50;9.18;;;8.35;;
41663;SDS011;27353;50.906;7.248;2024-03-02T07:09:16;7.85;;;7.20;;
41663;SDS011;27353;50.906;7.248;2024-03-02T07:11:42;10.38;;;9.30;;
41663;SDS011;27353;50.906;7.248;2024-03-02T07:14:07;9.40;;;8.50;;
41663;SDS011;27353;50.906;7.248;2024-03-02T07:16:33;8.10;;;7.38;;
41663;SDS011;27353;50.906;7.248;2024-03-02T07:18:59;8.27;;;7.63;;
41663;SDS011;27353;50.906;7.248;2024-03-02T07:21:26;8.70;;;7.90;;
41663;SDS011;27353;50.906;7.248;2024-03-02T07:23:52;8.13;;;7.38;;
41663;SDS011;27353;50.906;7.248;2024-03-02T07:26:18;7.97;;;7.20;;
41663;SDS011;27353;50.906;7.248;2024-03-02T07:28:45;6.75;;;6.35;;
41663;SDS011;27353;50.906;7.248;2024-03-02T07:31:12;7.28;;;6.63;;
41663;SDS011;27353;50.906;7.248;2024-03-02T07:33:38;8.60;;;8.05;;
41663;SDS011;27353;50.906;7.248;2024-03-02T07:36:03;7.40;;;6.95;;
41663;SDS011;27353;50.906;7.248;2024-03-02T07:38:29;8.35;;;7.65;;
41663;SDS011;27353;50.906;7.248;2024-03-02T07:40:56;9.27;;;8.00;;
41663;SDS011;27353;50.906;7.248;2024-03-02T07:43:22;8.35;;;7.65;;
41663;SDS011;27353;50.906;7.248;2024-03-02T07:45:48;8.95;;;7.95;;
41663;SDS011;27353;50.906;7.248;2024-03-02T07:48:14;7.53;;;6.97;;
41663;SDS011;27353;50.906;7.248;2024-03-02T07:50:40;8.20;;;7.60;;
41663;SDS011;27353;50.906;7.248;2024-03-02T07:53:06;8.50;;;7.70;;
41663;SDS011;27353;50.906;7.248;2024-03-02T07:55:32;10.23;;;9.32;;
41663;SDS011;27353;50.906;7.248;2024-03-02T07:57:58;8.82;;;7.90;;
41663;SDS011;27353;50.906;7.248;2024-03-02T08:00:24;9.65;;;9.07;;
41663;SDS011;27353;50.906;7.248;2024-03-02T08:02:50;8.32;;;7.70;;
41663;SDS011;27353;50.906;7.248;2024-03-02T08:05:17;8.55;;;7.57;;
41663;SDS011;27353;50.906;7.248;2024-03-02T08:07:44;7.88;;;7.30;;
41663;SDS011;27353;50.906;7.248;2024-03-02T08:10:10;8.35;;;7.68;;
41663;SDS011;27353;50.906;7.248;2024-03-02T08:12:36;7.53;;;6.88;;
41663;SDS011;27353;50.906;7.248;2024-03-02T08:15:01;7.95;;;7.35;;
41663;SDS011;27353;50.906;7.248;2024-03-02T08:17:27;8.00;;;7.50;;
41663;SDS011;27353;50.906;7.248;2024-03-02T08:19:52;7.97;;;7.45;;
41663;SDS011;27353;50.906;7.248;2024-03-02T08:22:18;7.78;;;7.32;;
41663;SDS011;27353;50.906;7.248;2024-03-02T08:24:44;9.23;;;8.77;;
41663;SDS011;27353;50.906;7.248;2024-03-02T08:27:10;10.02;;;9.30;;
41663;SDS011;27353;50.906;7.248;2024-03-02T08:29:36;10.35;;;9.85;;
41663;SDS011;27353;50.906;7.248;2024-03-02T08:32:01;12.60;;;12.00;;
41663;SDS011;27353;50.906;7.248;2024-03-02T08:34:27;11.38;;;10.77;;
41663;SDS011;27353;50.906;7.248;2024-03-02T08:36:53;11.18;;;10.48;;
41663;SDS011;27353;50.906;7.248;2024-03-02T08:39:18;10.73;;;10.32;;
41663;SDS011;27353;50.906;7.248;2024-03-02T08:41:44;11.10;;;10.60;;
41663;SDS011;27353;50.906;7.248;2024-03-02T08:44:10;11.25;;;10.65;;
41663;SDS011;27353;50.906;7.248;2024-03-02T08:46:37;10.82;;;10.32;;
41663;SDS011;27353;50.906;7.248;2024-03-02T08:49:03;11.27;;;10.73;;
41663;SDS011;27353;50.906;7.248;2024-03-02T08:51:29;10.95;;;10.45;;
41663;SDS011;27353;50.906;7.248;2024-03-02T08:53:55;10.73;;;10.23;;
41663;SDS011;27353;50.906;7.248;2024-03-02T08:56:21;11.32;;;10.82;;
41663;SDS011;27353;50.906;7.248;2024-03-02T08:58:48;11.10;;;10.60;;
41663;SDS011;27353;50.906;7.248;2024-03-02T09:01:18;10.98;;;10.57;;
41663;SDS011;27353;50.906;7.248;2024-03-02T09:03:44;11.20;;;10.70;;
41663;SDS011;27353;50.906;7.248;2024-03-02T09:06:11;11.50;;;10.90;;
41663;SDS011;27353;50.906;7.248;2024-03-02T09:08:37;11.00;;;10.35;;
41663;SDS011;27353;50.906;7.248;2024-03-02T09:11:03;10.60;;;9.85;;
41663;SDS011;27353;50.906;7.248;2024-03-02T09:13:29;9.57;;;9.07;;
41663;SDS011;27353;50.906;7.248;2024-03-02T09:15:55;10.07;;;9.68;;
41663;SDS011;27353;50.906;7.248;2024-03-02T09:18:21;10.35;;;9.95;;
41663;SDS011;27353;50.906;7.248;2024-03-02T09:20:46;11.15;;;10.65;;
41663;SDS011;27353;50.906;7.248;2024-03-02T09:23:12;11.00;;;10.40;;
41663;SDS011;27353;50.906;7.248;2024-03-02T09:25:37;10.82;;;10.40;;
41663;SDS011;27353;50.906;7.248;2024-03-02T09:28:03;11.95;;;11.45;;
41663;SDS011;27353;50.906;7.248;2024-03-02T09:30:28;11.05;;;10.65;;
41663;SDS011;27353;50.906;7.248;2024-03-02T09:32:54;12.10;;;11.40;;
41663;SDS011;27353;50.906;7.248;2024-03-02T09:35:20;10.85;;;10.43;;
41663;SDS011;27353;50.906;7.248;2024-03-02T09:37:45;10.63;;;10.10;;
41663;SDS011;27353;50.906;7.248;2024-03-02T09:40:11;10.90;;;10.35;;
41663;SDS011;27353;50.906;7.248;2024-03-02T09:42:38;10.82;;;10.32;;
41663;SDS011;27353;50.906;7.248;2024-03-02T09:45:05;11.35;;;10.85;;
41663;SDS011;27353;50.906;7.248;2024-03-02T09:47:31;12.88;;;12.10;;
41663;SDS011;27353;50.906;7.248;2024-03-02T09:49:57;11.00;;;10.60;;
41663;SDS011;27353;50.906;7.248;2024-03-02T09:52:23;11.05;;;10.50;;
41663;SDS011;27353;50.906;7.248;2024-03-02T09:54:48;11.98;;;11.30;;
41663;SDS011;27353;50.906;7.248;2024-03-02T09:57:14;12.20;;;11.60;;
41663;SDS011;27353;50.906;7.248;2024-03-02T09:59:40;11.10;;;10.60;;
41663;SDS011;27353;50.906;7.248;2024-03-02T10:02:06;11.75;;;11.15;;
41663;SDS011;27353;50.906;7.248;2024-03-02T10:04:32;11.02;;;10.60;;
41663;SDS011;27353;50.906;7.248;2024-03-02T10:07:13;11.30;;;10.77;;
41663;SDS011;27353;50.906;7.248;2024-03-02T10:09:40;11.60;;;11.10;;
41663;SDS011;27353;50.906;7.248;2024-03-02T10:12:07;10.90;;;10.30;;
41663;SDS011;27353;50.906;7.248;2024-03-02T10:14:34;11.32;;;10.93;;
41663;SDS011;27353;50.906;7.248;2024-03-02T10:17:03;11.98;;;11.30;;
41663;SDS011;27353;50.906;7.248;2024-03-02T10:19:29;11.65;;;10.98;;
41663;SDS011;27353;50.906;7.248;2024-03-02T10:21:59;11.73;;;11.23;;
41663;SDS011;27353;50.906;7.248;2024-03-02T10:24:27;12.35;;;11.50;;
41663;SDS011;27353;50.906;7.248;2024-03-02T10:26:59;12.35;;;11.77;;
41663;SDS011;27353;50.906;7.248;2024-03-02T10:29:24;12.77;;;12.27;;
41663;SDS011;27353;50.906;7.248;2024-03-02T10:31:53;9.98;;;9.35;;
41663;SDS011;27353;50.906;7.248;2024-03-02T10:34:19;10.45;;;9.95;;
41663;SDS011;27353;50.906;7.248;2024-03-02T10:36:47;10.18;;;9.52;;
41663;SDS011;27353;50.906;7.248;2024-03-02T10:39:12;10.40;;;9.98;;
41663;SDS011;27353;50.906;7.248;2024-03-02T10:41:39;9.70;;;9.30;;
41663;SDS011;27353;50.906;7.248;2024-03-02T10:44:06;10.32;;;9.68;;
41663;SDS011;27353;50.906;7.248;2024-03-02T10:46:33;10.63;;;10.02;;
41663;SDS011;27353;50.906;7.248;2024-03-02T10:49:01;12.15;;;11.30;;
41663;SDS011;27353;50.906;7.248;2024-03-02T10:51:29;11.10;;;10.50;;
41663;SDS011;27353;50.906;7.248;2024-03-02T10:54:01;10.52;;;9.98;;
41663;SDS011;27353;50.906;7.248;2024-03-02T10:56:28;10.68;;;10.20;;
41663;SDS011;27353;50.906;7.248;2024-03-02T10:59:17;11.68;;;11.20;;
41663;SDS011;27353;50.906;7.248;2024-03-02T11:01:41;11.57;;;11.13;;
41663;SDS011;27353;50.906;7.248;2024-03-02T11:04:09;12.05;;;11.55;;
41663;SDS011;27353;50.906;7.248;2024-03-02T11:06:37;12.02;;;11.52;;
41663;SDS011;27353;50.906;7.248;2024-03-02T11:09:07;79.22;;;52.38;;
41663;SDS011;27353;50.906;7.248;2024-03-02T11:11:40;21.30;;;19.33;;
41663;SDS011;27353;50.906;7.248;2024-03-02T11:14:10;12.57;;;11.93;;
41663;SDS011;27353;50.906;7.248;2024-03-02T11:16:39;11.57;;;10.85;;
41663;SDS011;27353;50.906;7.248;2024-03-02T11:19:06;12.98;;;12.38;;
41663;SDS011;27353;50.906;7.248;2024-03-02T11:21:35;11.95;;;11.55;;
41663;SDS011;27353;50.906;7.248;2024-03-02T11:24:28;11.40;;;11.00;;
41663;SDS011;27353;50.906;7.248;2024-03-02T11:26:57;11.45;;;11.05;;
41663;SDS011;27353;50.906;7.248;2024-03-02T11:32:01;11.02;;;10.63;;
41663;SDS011;27353;50.906;7.248;2024-03-02T11:34:31;10.18;;;9.77;;
41663;SDS011;27353;50.906;7.248;2024-03-02T11:36:58;10.45;;;9.73;;
41663;SDS011;27353;50.906;7.248;2024-03-02T11:39:26;12.05;;;11.65;;
41663;SDS011;27353;50.906;7.248;2024-03-02T11:41:52;10.10;;;9.70;;
41663;SDS011;27353;50.906;7.248;2024-03-02T11:44:17;10.50;;;10.18;;
41663;SDS011;27353;50.906;7.248;2024-03-02T11:46:51;11.88;;;11.27;;
41663;SDS011;27353;50.906;7.248;2024-03-02T11:49:38;11.68;;;11.07;;
41663;SDS011;27353;50.906;7.248;2024-03-02T11:52:05;12.13;;;11.55;;
41663;SDS011;27353;50.906;7.248;2024-03-02T11:54:34;12.30;;;11.80;;
41663;SDS011;27353;50.906;7.248;2024-03-02T11:57:04;13.25;;;12.75;;
41663;SDS011;27353;50.906;7.248;2024-03-02T11:59:30;13.85;;;13.15;;
41663;SDS011;27353;50.906;7.248;2024-03-02T12:01:56;13.07;;;12.38;;
41663;SDS011;27353;50.906;7.248;2024-03-02T12:04:23;13.10;;;12.60;;
41663;SDS011;27353;50.906;7.248;2024-03-02T12:06:55;12.60;;;11.95;;
41663;SDS011;27353;50.906;7.248;2024-03-02T12:09:24;13.13;;;12.63;;
41663;SDS011;27353;50.906;7.248;2024-03-02T12:12:00;13.00;;;12.50;;
41663;SDS011;27353;50.906;7.248;2024-03-02T12:14:28;12.75;;;12.25;;
41663;SDS011;27353;50.906;7.248;2024-03-02T12:16:54;12.93;;;12.38;;
41663;SDS011;27353;50.906;7.248;2024-03-02T12:19:20;11.30;;;10.80;;
41663;SDS011;27353;50.906;7.248;2024-03-02T12:21:46;16.00;;;14.80;;
41663;SDS011;27353;50.906;7.248;2024-03-02T12:24:12;13.27;;;12.68;;
41663;SDS011;27353;50.906;7.248;2024-03-02T12:26:38;13.52;;;13.02;;
41663;SDS011;27353;50.906;7.248;2024-03-02T12:29:04;13.13;;;12.63;;
41663;SDS011;27353;50.906;7.248;2024-03-02T12:31:30;13.95;;;13.32;;
41663;SDS011;27353;50.906;7.248;2024-03-02T12:33:55;12.80;;;12.30;;
41663;SDS011;27353;50.906;7.248;2024-03-02T12:36:21;12.70;;;12.23;;
41663;SDS011;27353;50.906;7.248;2024-03-02T12:38:47;12.50;;;12.00;;
41663;SDS011;27353;50.906;7.248;2024-03-02T12:41:16;12.70;;;12.20;;
41663;SDS011;27353;50.906;7.248;2024-03-02T12:43:42;12.25;;;11.75;;
41663;SDS011;27353;50.906;7.248;2024-03-02T12:46:07;12.02;;;11.60;;
41663;SDS011;27353;50.906;7.248;2024-03-02T12:48:33;11.55;;;11.15;;
41663;SDS011;27353;50.906;7.248;2024-03-02T12:51:00;11.85;;;11.15;;
41663;SDS011;27353;50.906;7.248;2024-03-02T12:53:26;11.40;;;11.00;;
41663;SDS011;27353;50.906;7.248;2024-03-02T12:55:52;11.70;;;11.30;;
41663;SDS011;27353;50.906;7.248;2024-03-02T12:58:18;11.20;;;10.80;;
41663;SDS011;27353;50.906;7.248;2024-03-02T13:00:48;12.20;;;11.70;;
41663;SDS011;27353;50.906;7.248;2024-03-02T13:03:14;11.07;;;10.68;;
41663;SDS011;27353;50.906;7.248;2024-03-02T13:05:47;11.93;;;11.52;;
41663;SDS011;27353;50.906;7.248;2024-03-02T13:08:14;11.82;;;11.25;;
41663;SDS011;27353;50.906;7.248;2024-03-02T13:10:39;12.70;;;12.27;;
41663;SDS011;27353;50.906;7.248;2024-03-02T13:13:06;12.30;;;11.80;;
41663;SDS011;27353;50.906;7.248;2024-03-02T13:15:32;12.57;;;12.02;;
41663;SDS011;27353;50.906;7.248;2024-03-02T13:17:59;13.45;;;12.40;;
41663;SDS011;27353;50.906;7.248;2024-03-02T13:20:32;13.02;;;12.55;;
41663;SDS011;27353;50.906;7.248;2024-03-02T13:22:58;12.10;;;11.50;;
41663;SDS011;27353;50.906;7.248;2024-03-02T13:25:23;11.40;;;11.00;;
41663;SDS011;27353;50.906;7.248;2024-03-02T13:27:49;11.68;;;11.18;;
41663;SDS011;27353;50.906;7.248;2024-03-02T13:30:14;12.20;;;11.80;;
41663;SDS011;27353;50.906;7.248;2024-03-02T13:32:40;12.05;;;11.55;;
41663;SDS011;27353;50.906;7.248;2024-03-02T13:35:05;12.30;;;11.80;;
41663;SDS011;27353;50.906;7.248;2024-03-02T13:37:31;11.48;;;11.07;;
41663;SDS011;27353;50.906;7.248;2024-03-02T13:39:57;12.32;;;11.93;;
41663;SDS011;27353;50.906;7.248;2024-03-02T13:42:23;11.65;;;11.13;;
41663;SDS011;27353;50.906;7.248;2024-03-02T13:44:48;11.25;;;10.73;;
41663;SDS011;27353;50.906;7.248;2024-03-02T13:47:16;10.95;;;10.50;;
41663;SDS011;27353;50.906;7.248;2024-03-02T13:49:42;11.60;;;11.10;;
41663;SDS011;27353;50.906;7.248;2024-03-02T13:52:10;11.15;;;10.75;;
41663;SDS011;27353;50.906;7.248;2024-03-02T13:54:38;11.85;;;11.25;;
41663;SDS011;27353;50.906;7.248;2024-03-02T13:57:07;11.35;;;10.95;;
41663;SDS011;27353;50.906;7.248;2024-03-02T13:59:33;10.90;;;10.50;;
41663;SDS011;27353;50.906;7.248;2024-03-02T14:02:00;10.90;;;10.35;;
41663;SDS011;27353;50.906;7.248;2024-03-02T14:04:30;11.48;;;11.07;;
41663;SDS011;27353;50.906;7.248;2024-03-02T14:06:58;11.20;;;10.80;;
41663;SDS011;27353;50.906;7.248;2024-03-02T14:09:24;11.27;;;10.65;;
41663;SDS011;27353;50.906;7.248;2024-03-02T14:11:50;12.38;;;11.77;;
41663;SDS011;27353;50.906;7.248;2024-03-02T14:14:17;10.40;;;9.90;;
41663;SDS011;27353;50.906;7.248;2024-03-02T14:16:43;10.45;;;10.05;;
41663;SDS011;27353;50.906;7.248;2024-03-02T14:19:09;9.88;;;9.48;;
41663;SDS011;27353;50.906;7.248;2024-03-02T14:21:35;10.55;;;10.15;;
41663;SDS011;27353;50.906;7.248;2024-03-02T14:24:01;10.00;;;9.68;;
41663;SDS011;27353;50.906;7.248;2024-03-02T14:26:26;10.55;;;10.15;;
41663;SDS011;27353;50.906;7.248;2024-03-02T14:28:53;10.93;;;10.43;;
41663;SDS011;27353;50.906;7.248;2024-03-02T14:31:19;10.70;;;10.20;;
41663;SDS011;27353;50.906;7.248;2024-03-02T14:33:45;10.63;;;10.23;;
41663;SDS011;27353;50.906;7.248;2024-03-02T14:36:11;10.75;;;10.35;;
41663;SDS011;27353;50.906;7.248;2024-03-02T14:38:37;9.73;;;9.30;;
41663;SDS011;27353;50.906;7.248;2024-03-02T14:41:03;9.15;;;8.77;;